Alfordsville, Indiana
Current Conditions -  °F | °C
As of 3:55 PM on Saturday 25 Oct 2014 (Local Time) from KDCY Reporting Station
Clear Clear  
Wind Chill: 77°   Ceiling: Unl
Heat Index: 79°   Visibility: 10mi
Dew Point: 54°   Wind: 7mph
Humidity: 44%   Direction: 280°W
Pressure: 29.96"   Gusts: NA
Location:  38.6074°N, 86.9234°W
Report Text: KDCY 252055Z AUTO 28006KT 10SM CLR 25/12 A2996 RMK AO2 T02510122
Loading
Personal Weather Stations






























Interactive Weather Map New forecast layout! Learn more

10-Day Weather Forecast

Advertisements
Track Severe Weather on mobile